sensor_id;sensor_type;location;lat;lon;timestamp;P1;durP1;ratioP1;P2;durP2;ratioP2
9436;SDS011;4757;59.334;18.034;2023-07-24T00:01:26;3.23;;;2.43;;
9436;SDS011;4757;59.334;18.034;2023-07-24T00:03:56;3.67;;;2.57;;
9436;SDS011;4757;59.334;18.034;2023-07-24T00:06:25;2.70;;;2.50;;
9436;SDS011;4757;59.334;18.034;2023-07-24T00:08:53;3.57;;;2.60;;
9436;SDS011;4757;59.334;18.034;2023-07-24T00:11:20;4.33;;;2.40;;
9436;SDS011;4757;59.334;18.034;2023-07-24T00:13:47;4.17;;;2.60;;
9436;SDS011;4757;59.334;18.034;2023-07-24T00:16:16;3.23;;;2.13;;
9436;SDS011;4757;59.334;18.034;2023-07-24T00:18:50;3.43;;;2.67;;
9436;SDS011;4757;59.334;18.034;2023-07-24T00:21:17;2.73;;;2.53;;
9436;SDS011;4757;59.334;18.034;2023-07-24T00:23:44;4.60;;;2.43;;
9436;SDS011;4757;59.334;18.034;2023-07-24T00:26:11;3.50;;;2.20;;
9436;SDS011;4757;59.334;18.034;2023-07-24T00:28:41;3.77;;;2.10;;
9436;SDS011;4757;59.334;18.034;2023-07-24T00:31:08;3.90;;;2.30;;
9436;SDS011;4757;59.334;18.034;2023-07-24T00:33:41;4.03;;;2.50;;
9436;SDS011;4757;59.334;18.034;2023-07-24T00:36:14;7.30;;;2.80;;
9436;SDS011;4757;59.334;18.034;2023-07-24T00:38:47;5.10;;;2.40;;
9436;SDS011;4757;59.334;18.034;2023-07-24T00:41:14;3.50;;;2.30;;
9436;SDS011;4757;59.334;18.034;2023-07-24T00:43:48;5.87;;;2.63;;
9436;SDS011;4757;59.334;18.034;2023-07-24T00:46:24;4.03;;;2.20;;
9436;SDS011;4757;59.334;18.034;2023-07-24T00:48:51;3.23;;;2.07;;
9436;SDS011;4757;59.334;18.034;2023-07-24T00:51:20;5.07;;;2.00;;
9436;SDS011;4757;59.334;18.034;2023-07-24T00:53:47;4.53;;;2.60;;
9436;SDS011;4757;59.334;18.034;2023-07-24T00:56:15;2.80;;;2.43;;
9436;SDS011;4757;59.334;18.034;2023-07-24T00:58:42;2.90;;;2.40;;
9436;SDS011;4757;59.334;18.034;2023-07-24T01:01:09;4.67;;;2.73;;
9436;SDS011;4757;59.334;18.034;2023-07-24T01:03:37;4.60;;;2.50;;
9436;SDS011;4757;59.334;18.034;2023-07-24T01:06:05;4.43;;;2.87;;
9436;SDS011;4757;59.334;18.034;2023-07-24T01:08:34;5.10;;;2.13;;
9436;SDS011;4757;59.334;18.034;2023-07-24T01:11:23;2.93;;;2.10;;
9436;SDS011;4757;59.334;18.034;2023-07-24T01:14:13;3.03;;;2.23;;
9436;SDS011;4757;59.334;18.034;2023-07-24T01:16:59;4.03;;;2.50;;
9436;SDS011;4757;59.334;18.034;2023-07-24T01:22:54;3.43;;;2.13;;
9436;SDS011;4757;59.334;18.034;2023-07-24T01:27:41;3.87;;;2.40;;
9436;SDS011;4757;59.334;18.034;2023-07-24T01:30:10;2.30;;;2.10;;
9436;SDS011;4757;59.334;18.034;2023-07-24T01:32:38;4.17;;;3.40;;
9436;SDS011;4757;59.334;18.034;2023-07-24T01:35:05;3.63;;;3.03;;
9436;SDS011;4757;59.334;18.034;2023-07-24T01:37:38;4.33;;;3.03;;
9436;SDS011;4757;59.334;18.034;2023-07-24T01:40:08;2.90;;;2.60;;
9436;SDS011;4757;59.334;18.034;2023-07-24T01:42:37;5.07;;;2.80;;
9436;SDS011;4757;59.334;18.034;2023-07-24T01:45:05;2.97;;;2.50;;
9436;SDS011;4757;59.334;18.034;2023-07-24T01:47:35;2.97;;;2.63;;
9436;SDS011;4757;59.334;18.034;2023-07-24T01:50:07;6.00;;;2.57;;
9436;SDS011;4757;59.334;18.034;2023-07-24T01:52:37;5.67;;;3.13;;
9436;SDS011;4757;59.334;18.034;2023-07-24T01:55:04;5.97;;;2.80;;
9436;SDS011;4757;59.334;18.034;2023-07-24T01:57:34;3.73;;;2.77;;
9436;SDS011;4757;59.334;18.034;2023-07-24T02:00:03;3.43;;;2.70;;
9436;SDS011;4757;59.334;18.034;2023-07-24T02:02:31;3.10;;;2.30;;
9436;SDS011;4757;59.334;18.034;2023-07-24T02:04:58;5.83;;;2.83;;
9436;SDS011;4757;59.334;18.034;2023-07-24T02:07:25;2.73;;;2.40;;
9436;SDS011;4757;59.334;18.034;2023-07-24T02:09:54;4.10;;;2.80;;
9436;SDS011;4757;59.334;18.034;2023-07-24T02:12:21;6.20;;;2.60;;
9436;SDS011;4757;59.334;18.034;2023-07-24T02:14:48;4.33;;;3.50;;
9436;SDS011;4757;59.334;18.034;2023-07-24T02:17:18;4.67;;;3.03;;
9436;SDS011;4757;59.334;18.034;2023-07-24T02:19:46;4.00;;;3.07;;
9436;SDS011;4757;59.334;18.034;2023-07-24T02:22:15;4.17;;;2.83;;
9436;SDS011;4757;59.334;18.034;2023-07-24T02:24:42;6.80;;;3.40;;
9436;SDS011;4757;59.334;18.034;2023-07-24T02:27:13;5.83;;;3.37;;
9436;SDS011;4757;59.334;18.034;2023-07-24T02:29:50;5.03;;;3.07;;
9436;SDS011;4757;59.334;18.034;2023-07-24T02:32:18;5.07;;;3.50;;
9436;SDS011;4757;59.334;18.034;2023-07-24T02:34:56;6.97;;;2.80;;
9436;SDS011;4757;59.334;18.034;2023-07-24T02:37:23;3.87;;;3.37;;
9436;SDS011;4757;59.334;18.034;2023-07-24T02:39:51;5.37;;;3.60;;
9436;SDS011;4757;59.334;18.034;2023-07-24T02:42:24;7.23;;;3.20;;
9436;SDS011;4757;59.334;18.034;2023-07-24T02:44:51;5.63;;;3.70;;
9436;SDS011;4757;59.334;18.034;2023-07-24T02:47:21;4.20;;;2.90;;
9436;SDS011;4757;59.334;18.034;2023-07-24T02:49:50;3.10;;;2.80;;
9436;SDS011;4757;59.334;18.034;2023-07-24T02:52:19;3.30;;;3.00;;
9436;SDS011;4757;59.334;18.034;2023-07-24T02:54:46;3.73;;;3.27;;
9436;SDS011;4757;59.334;18.034;2023-07-24T02:57:13;5.67;;;3.57;;
9436;SDS011;4757;59.334;18.034;2023-07-24T02:59:40;6.23;;;3.00;;
9436;SDS011;4757;59.334;18.034;2023-07-24T03:02:08;4.50;;;2.97;;
9436;SDS011;4757;59.334;18.034;2023-07-24T03:04:38;3.90;;;3.20;;
9436;SDS011;4757;59.334;18.034;2023-07-24T03:07:05;4.70;;;2.97;;
9436;SDS011;4757;59.334;18.034;2023-07-24T03:09:33;4.83;;;3.07;;
9436;SDS011;4757;59.334;18.034;2023-07-24T03:12:00;5.77;;;3.13;;
9436;SDS011;4757;59.334;18.034;2023-07-24T03:14:28;5.73;;;3.20;;
9436;SDS011;4757;59.334;18.034;2023-07-24T03:16:55;3.70;;;3.23;;
9436;SDS011;4757;59.334;18.034;2023-07-24T03:19:22;3.43;;;2.90;;
9436;SDS011;4757;59.334;18.034;2023-07-24T03:21:50;4.77;;;3.07;;
9436;SDS011;4757;59.334;18.034;2023-07-24T03:24:18;3.90;;;3.23;;
9436;SDS011;4757;59.334;18.034;2023-07-24T03:26:46;4.53;;;3.10;;
9436;SDS011;4757;59.334;18.034;2023-07-24T03:29:13;4.67;;;2.87;;
9436;SDS011;4757;59.334;18.034;2023-07-24T03:31:42;5.10;;;3.17;;
9436;SDS011;4757;59.334;18.034;2023-07-24T03:34:30;3.87;;;3.20;;
9436;SDS011;4757;59.334;18.034;2023-07-24T03:36:58;4.17;;;3.73;;
9436;SDS011;4757;59.334;18.034;2023-07-24T03:39:25;4.63;;;2.87;;
9436;SDS011;4757;59.334;18.034;2023-07-24T03:42:09;3.33;;;2.87;;
9436;SDS011;4757;59.334;18.034;2023-07-24T03:44:39;3.47;;;2.87;;
9436;SDS011;4757;59.334;18.034;2023-07-24T03:47:07;4.73;;;3.10;;
9436;SDS011;4757;59.334;18.034;2023-07-24T03:49:36;3.57;;;3.20;;
9436;SDS011;4757;59.334;18.034;2023-07-24T03:52:04;9.33;;;3.70;;
9436;SDS011;4757;59.334;18.034;2023-07-24T03:54:34;4.93;;;3.20;;
9436;SDS011;4757;59.334;18.034;2023-07-24T03:57:06;5.07;;;3.27;;
9436;SDS011;4757;59.334;18.034;2023-07-24T03:59:34;7.60;;;3.33;;
9436;SDS011;4757;59.334;18.034;2023-07-24T04:02:05;5.03;;;3.13;;
9436;SDS011;4757;59.334;18.034;2023-07-24T04:04:35;7.20;;;3.63;;
9436;SDS011;4757;59.334;18.034;2023-07-24T04:07:05;7.07;;;3.30;;
9436;SDS011;4757;59.334;18.034;2023-07-24T04:09:32;3.73;;;3.17;;
9436;SDS011;4757;59.334;18.034;2023-07-24T04:11:59;4.97;;;3.20;;
9436;SDS011;4757;59.334;18.034;2023-07-24T04:14:27;6.37;;;4.50;;
9436;SDS011;4757;59.334;18.034;2023-07-24T04:16:57;7.03;;;4.07;;
9436;SDS011;4757;59.334;18.034;2023-07-24T04:19:27;6.13;;;3.93;;
9436;SDS011;4757;59.334;18.034;2023-07-24T04:21:54;6.43;;;4.57;;
9436;SDS011;4757;59.334;18.034;2023-07-24T04:24:27;8.33;;;4.10;;
9436;SDS011;4757;59.334;18.034;2023-07-24T04:26:57;4.23;;;3.83;;
9436;SDS011;4757;59.334;18.034;2023-07-24T04:29:24;6.00;;;4.53;;
9436;SDS011;4757;59.334;18.034;2023-07-24T04:31:55;7.03;;;4.50;;
9436;SDS011;4757;59.334;18.034;2023-07-24T04:34:22;6.87;;;4.30;;
9436;SDS011;4757;59.334;18.034;2023-07-24T04:36:51;6.43;;;4.70;;
9436;SDS011;4757;59.334;18.034;2023-07-24T04:39:18;6.20;;;4.47;;
9436;SDS011;4757;59.334;18.034;2023-07-24T04:41:45;6.40;;;4.60;;
9436;SDS011;4757;59.334;18.034;2023-07-24T04:44:15;6.63;;;4.43;;
9436;SDS011;4757;59.334;18.034;2023-07-24T04:46:42;6.13;;;5.03;;
9436;SDS011;4757;59.334;18.034;2023-07-24T04:49:09;8.67;;;5.60;;
9436;SDS011;4757;59.334;18.034;2023-07-24T04:51:36;7.53;;;4.50;;
9436;SDS011;4757;59.334;18.034;2023-07-24T04:54:03;5.63;;;4.77;;
9436;SDS011;4757;59.334;18.034;2023-07-24T04:56:36;5.40;;;4.87;;
9436;SDS011;4757;59.334;18.034;2023-07-24T04:59:03;7.93;;;4.33;;
9436;SDS011;4757;59.334;18.034;2023-07-24T05:01:30;5.13;;;4.63;;
9436;SDS011;4757;59.334;18.034;2023-07-24T05:03:58;5.07;;;4.57;;
9436;SDS011;4757;59.334;18.034;2023-07-24T05:06:30;6.37;;;3.87;;
9436;SDS011;4757;59.334;18.034;2023-07-24T05:08:57;5.00;;;3.33;;
9436;SDS011;4757;59.334;18.034;2023-07-24T05:11:25;4.50;;;4.07;;
9436;SDS011;4757;59.334;18.034;2023-07-24T05:13:54;4.77;;;3.57;;
9436;SDS011;4757;59.334;18.034;2023-07-24T05:16:21;3.90;;;3.50;;
9436;SDS011;4757;59.334;18.034;2023-07-24T05:18:54;4.37;;;3.47;;
9436;SDS011;4757;59.334;18.034;2023-07-24T05:21:23;7.73;;;4.13;;
9436;SDS011;4757;59.334;18.034;2023-07-24T05:23:53;3.87;;;3.53;;
9436;SDS011;4757;59.334;18.034;2023-07-24T05:26:21;6.20;;;3.23;;
9436;SDS011;4757;59.334;18.034;2023-07-24T05:28:48;6.10;;;3.40;;
9436;SDS011;4757;59.334;18.034;2023-07-24T05:31:16;3.53;;;3.13;;
9436;SDS011;4757;59.334;18.034;2023-07-24T05:33:44;5.60;;;3.93;;
9436;SDS011;4757;59.334;18.034;2023-07-24T05:36:11;4.20;;;3.00;;
9436;SDS011;4757;59.334;18.034;2023-07-24T05:38:38;3.70;;;3.27;;
9436;SDS011;4757;59.334;18.034;2023-07-24T05:41:05;5.67;;;4.20;;
9436;SDS011;4757;59.334;18.034;2023-07-24T05:43:33;4.97;;;3.07;;
9436;SDS011;4757;59.334;18.034;2023-07-24T05:46:00;4.50;;;2.80;;
9436;SDS011;4757;59.334;18.034;2023-07-24T05:48:27;8.83;;;3.40;;
9436;SDS011;4757;59.334;18.034;2023-07-24T05:50:54;4.27;;;2.87;;
9436;SDS011;4757;59.334;18.034;2023-07-24T05:53:22;3.63;;;2.80;;
9436;SDS011;4757;59.334;18.034;2023-07-24T05:56:02;3.60;;;3.30;;
9436;SDS011;4757;59.334;18.034;2023-07-24T05:58:29;3.47;;;2.77;;
9436;SDS011;4757;59.334;18.034;2023-07-24T06:01:00;2.70;;;2.50;;
9436;SDS011;4757;59.334;18.034;2023-07-24T06:03:27;4.77;;;2.63;;
9436;SDS011;4757;59.334;18.034;2023-07-24T06:05:54;4.33;;;3.43;;
9436;SDS011;4757;59.334;18.034;2023-07-24T06:08:24;5.57;;;2.83;;
9436;SDS011;4757;59.334;18.034;2023-07-24T06:10:51;4.70;;;2.50;;
9436;SDS011;4757;59.334;18.034;2023-07-24T06:13:19;4.27;;;2.60;;
9436;SDS011;4757;59.334;18.034;2023-07-24T06:15:50;4.00;;;2.80;;
9436;SDS011;4757;59.334;18.034;2023-07-24T06:18:24;4.13;;;3.60;;
9436;SDS011;4757;59.334;18.034;2023-07-24T06:20:54;3.33;;;2.73;;
9436;SDS011;4757;59.334;18.034;2023-07-24T06:23:21;3.07;;;2.47;;
9436;SDS011;4757;59.334;18.034;2023-07-24T06:25:52;4.30;;;2.57;;
9436;SDS011;4757;59.334;18.034;2023-07-24T06:28:21;4.10;;;2.23;;
9436;SDS011;4757;59.334;18.034;2023-07-24T06:30:51;3.90;;;2.60;;
9436;SDS011;4757;59.334;18.034;2023-07-24T06:33:20;5.73;;;2.43;;
9436;SDS011;4757;59.334;18.034;2023-07-24T06:35:51;4.13;;;2.30;;
9436;SDS011;4757;59.334;18.034;2023-07-24T06:38:18;2.93;;;2.27;;
9436;SDS011;4757;59.334;18.034;2023-07-24T06:40:47;3.60;;;2.70;;
9436;SDS011;4757;59.334;18.034;2023-07-24T06:43:17;2.93;;;2.23;;
9436;SDS011;4757;59.334;18.034;2023-07-24T06:45:44;2.77;;;2.23;;
9436;SDS011;4757;59.334;18.034;2023-07-24T06:48:11;2.13;;;2.03;;
9436;SDS011;4757;59.334;18.034;2023-07-24T06:50:38;2.83;;;2.00;;
9436;SDS011;4757;59.334;18.034;2023-07-24T06:53:07;2.67;;;2.10;;
9436;SDS011;4757;59.334;18.034;2023-07-24T06:55:34;3.17;;;2.30;;
9436;SDS011;4757;59.334;18.034;2023-07-24T06:58:02;2.00;;;1.83;;
9436;SDS011;4757;59.334;18.034;2023-07-24T07:00:29;3.40;;;1.80;;
9436;SDS011;4757;59.334;18.034;2023-07-24T07:02:56;2.23;;;1.67;;
9436;SDS011;4757;59.334;18.034;2023-07-24T07:05:23;1.88;;;1.77;;
9436;SDS011;4757;59.334;18.034;2023-07-24T07:07:50;2.33;;;1.85;;
9436;SDS011;4757;59.334;18.034;2023-07-24T07:10:18;6.95;;;2.42;;
9436;SDS011;4757;59.334;18.034;2023-07-24T07:12:45;1.77;;;1.50;;
9436;SDS011;4757;59.334;18.034;2023-07-24T07:15:14;2.33;;;1.80;;
9436;SDS011;4757;59.334;18.034;2023-07-24T07:17:42;1.80;;;1.58;;
9436;SDS011;4757;59.334;18.034;2023-07-24T07:20:09;3.17;;;2.03;;
9436;SDS011;4757;59.334;18.034;2023-07-24T07:22:36;1.98;;;1.80;;
9436;SDS011;4757;59.334;18.034;2023-07-24T07:25:03;1.40;;;1.30;;
9436;SDS011;4757;59.334;18.034;2023-07-24T07:27:31;1.70;;;1.50;;
9436;SDS011;4757;59.334;18.034;2023-07-24T07:29:58;2.33;;;1.67;;
9436;SDS011;4757;59.334;18.034;2023-07-24T07:32:25;2.58;;;1.80;;
9436;SDS011;4757;59.334;18.034;2023-07-24T07:34:53;3.05;;;1.40;;
9436;SDS011;4757;59.334;18.034;2023-07-24T07:37:20;1.65;;;1.55;;
9436;SDS011;4757;59.334;18.034;2023-07-24T07:39:47;1.63;;;1.35;;
9436;SDS011;4757;59.334;18.034;2023-07-24T07:42:14;1.70;;;1.60;;
9436;SDS011;4757;59.334;18.034;2023-07-24T07:44:45;1.70;;;1.60;;
9436;SDS011;4757;59.334;18.034;2023-07-24T07:47:12;2.45;;;1.83;;
9436;SDS011;4757;59.334;18.034;2023-07-24T07:49:40;1.73;;;1.63;;
9436;SDS011;4757;59.334;18.034;2023-07-24T07:52:08;2.05;;;1.45;;
9436;SDS011;4757;59.334;18.034;2023-07-24T07:54:35;2.58;;;2.35;;
9436;SDS011;4757;59.334;18.034;2023-07-24T07:57:03;2.95;;;1.92;;
9436;SDS011;4757;59.334;18.034;2023-07-24T07:59:31;1.38;;;1.27;;
9436;SDS011;4757;59.334;18.034;2023-07-24T08:01:58;1.50;;;1.40;;
9436;SDS011;4757;59.334;18.034;2023-07-24T08:04:25;1.52;;;1.40;;
9436;SDS011;4757;59.334;18.034;2023-07-24T08:06:52;4.25;;;2.53;;
9436;SDS011;4757;59.334;18.034;2023-07-24T08:09:19;2.38;;;1.50;;
9436;SDS011;4757;59.334;18.034;2023-07-24T08:11:52;1.85;;;1.63;;
9436;SDS011;4757;59.334;18.034;2023-07-24T08:14:22;2.17;;;1.67;;
9436;SDS011;4757;59.334;18.034;2023-07-24T08:16:49;2.42;;;1.88;;
9436;SDS011;4757;59.334;18.034;2023-07-24T08:19:29;2.55;;;1.55;;
9436;SDS011;4757;59.334;18.034;2023-07-24T08:21:56;2.83;;;1.92;;
9436;SDS011;4757;59.334;18.034;2023-07-24T08:24:23;1.65;;;1.55;;
9436;SDS011;4757;59.334;18.034;2023-07-24T08:26:53;1.80;;;1.70;;
9436;SDS011;4757;59.334;18.034;2023-07-24T08:29:23;1.70;;;1.60;;
9436;SDS011;4757;59.334;18.034;2023-07-24T08:31:55;1.90;;;1.80;;
9436;SDS011;4757;59.334;18.034;2023-07-24T08:34:27;1.25;;;1.15;;
9436;SDS011;4757;59.334;18.034;2023-07-24T08:36:54;1.35;;;1.25;;
9436;SDS011;4757;59.334;18.034;2023-07-24T08:39:27;1.45;;;1.35;;
9436;SDS011;4757;59.334;18.034;2023-07-24T08:42:11;1.30;;;1.20;;
9436;SDS011;4757;59.334;18.034;2023-07-24T08:44:42;2.33;;;1.35;;
9436;SDS011;4757;59.334;18.034;2023-07-24T08:47:18;1.35;;;1.25;;
9436;SDS011;4757;59.334;18.034;2023-07-24T08:49:46;2.20;;;1.80;;
9436;SDS011;4757;59.334;18.034;2023-07-24T08:52:14;1.73;;;1.23;;
9436;SDS011;4757;59.334;18.034;2023-07-24T08:55:01;2.60;;;1.40;;
9436;SDS011;4757;59.334;18.034;2023-07-24T08:57:29;1.50;;;1.40;;
9436;SDS011;4757;59.334;18.034;2023-07-24T08:59:57;1.20;;;1.10;;
9436;SDS011;4757;59.334;18.034;2023-07-24T09:02:25;1.10;;;1.00;;
9436;SDS011;4757;59.334;18.034;2023-07-24T09:04:54;1.38;;;0.95;;
9436;SDS011;4757;59.334;18.034;2023-07-24T09:07:22;2.03;;;1.30;;
9436;SDS011;4757;59.334;18.034;2023-07-24T09:09:50;1.88;;;1.17;;
9436;SDS011;4757;59.334;18.034;2023-07-24T09:12:17;1.00;;;1.00;;
9436;SDS011;4757;59.334;18.034;2023-07-24T09:14:44;1.00;;;1.00;;
9436;SDS011;4757;59.334;18.034;2023-07-24T09:17:14;3.40;;;1.30;;
9436;SDS011;4757;59.334;18.034;2023-07-24T09:19:44;2.05;;;1.55;;
9436;SDS011;4757;59.334;18.034;2023-07-24T09:22:15;1.20;;;1.10;;
9436;SDS011;4757;59.334;18.034;2023-07-24T09:24:57;5.45;;;1.40;;
9436;SDS011;4757;59.334;18.034;2023-07-24T09:27:25;1.20;;;1.10;;
9436;SDS011;4757;59.334;18.034;2023-07-24T09:29:54;1.50;;;1.10;;
9436;SDS011;4757;59.334;18.034;2023-07-24T09:32:22;1.63;;;1.52;;
9436;SDS011;4757;59.334;18.034;2023-07-24T09:34:55;1.27;;;1.13;;
9436;SDS011;4757;59.334;18.034;2023-07-24T09:37:33;1.27;;;1.17;;
9436;SDS011;4757;59.334;18.034;2023-07-24T09:40:03;1.63;;;1.40;;
9436;SDS011;4757;59.334;18.034;2023-07-24T09:42:34;2.63;;;1.10;;
9436;SDS011;4757;59.334;18.034;2023-07-24T09:45:26;1.40;;;1.30;;
9436;SDS011;4757;59.334;18.034;2023-07-24T09:47:54;1.73;;;1.45;;
9436;SDS011;4757;59.334;18.034;2023-07-24T09:50:33;1.42;;;1.30;;
9436;SDS011;4757;59.334;18.034;2023-07-24T09:53:00;2.72;;;1.55;;
9436;SDS011;4757;59.334;18.034;2023-07-24T09:55:32;1.45;;;1.20;;
9436;SDS011;4757;59.334;18.034;2023-07-24T09:58:08;1.35;;;1.30;;
9436;SDS011;4757;59.334;18.034;2023-07-24T10:00:42;2.50;;;1.33;;
9436;SDS011;4757;59.334;18.034;2023-07-24T10:03:09;3.33;;;1.50;;
9436;SDS011;4757;59.334;18.034;2023-07-24T10:05:37;2.42;;;1.30;;
9436;SDS011;4757;59.334;18.034;2023-07-24T10:08:05;1.52;;;1.42;;
9436;SDS011;4757;59.334;18.034;2023-07-24T10:10:36;3.58;;;1.77;;
9436;SDS011;4757;59.334;18.034;2023-07-24T10:13:04;1.40;;;1.30;;
9436;SDS011;4757;59.334;18.034;2023-07-24T10:15:33;2.40;;;1.50;;
9436;SDS011;4757;59.334;18.034;2023-07-24T10:18:01;2.25;;;1.42;;
9436;SDS011;4757;59.334;18.034;2023-07-24T10:20:34;2.75;;;1.63;;
9436;SDS011;4757;59.334;18.034;2023-07-24T10:23:06;1.73;;;1.45;;
9436;SDS011;4757;59.334;18.034;2023-07-24T10:25:35;1.65;;;1.55;;
9436;SDS011;4757;59.334;18.034;2023-07-24T10:28:04;2.08;;;1.52;;
9436;SDS011;4757;59.334;18.034;2023-07-24T10:30:34;1.73;;;1.60;;
9436;SDS011;4757;59.334;18.034;2023-07-24T10:33:08;3.30;;;2.17;;
9436;SDS011;4757;59.334;18.034;2023-07-24T10:35:47;2.60;;;1.77;;
9436;SDS011;4757;59.334;18.034;2023-07-24T10:38:19;2.55;;;1.33;;
9436;SDS011;4757;59.334;18.034;2023-07-24T10:41:01;2.33;;;1.65;;
9436;SDS011;4757;59.334;18.034;2023-07-24T10:46:37;1.83;;;1.42;;
9436;SDS011;4757;59.334;18.034;2023-07-24T10:49:09;3.97;;;1.50;;
9436;SDS011;4757;59.334;18.034;2023-07-24T10:51:37;1.20;;;1.10;;
9436;SDS011;4757;59.334;18.034;2023-07-24T10:54:06;3.25;;;1.70;;
9436;SDS011;4757;59.334;18.034;2023-07-24T10:56:36;1.90;;;1.30;;
9436;SDS011;4757;59.334;18.034;2023-07-24T10:59:06;1.20;;;1.05;;
9436;SDS011;4757;59.334;18.034;2023-07-24T11:01:33;1.10;;;1.10;;
9436;SDS011;4757;59.334;18.034;2023-07-24T11:04:01;2.80;;;1.42;;
9436;SDS011;4757;59.334;18.034;2023-07-24T11:06:31;1.45;;;1.35;;
9436;SDS011;4757;59.334;18.034;2023-07-24T11:08:59;1.60;;;1.35;;
9436;SDS011;4757;59.334;18.034;2023-07-24T11:11:27;1.48;;;1.35;;
9436;SDS011;4757;59.334;18.034;2023-07-24T11:14:00;1.45;;;1.10;;
9436;SDS011;4757;59.334;18.034;2023-07-24T11:16:49;2.40;;;1.30;;
9436;SDS011;4757;59.334;18.034;2023-07-24T11:19:24;2.30;;;1.30;;
9436;SDS011;4757;59.334;18.034;2023-07-24T11:21:51;4.35;;;1.40;;
9436;SDS011;4757;59.334;18.034;2023-07-24T11:24:19;1.52;;;1.38;;
9436;SDS011;4757;59.334;18.034;2023-07-24T11:26:48;1.25;;;1.15;;
9436;SDS011;4757;59.334;18.034;2023-07-24T11:29:18;1.48;;;1.20;;
9436;SDS011;4757;59.334;18.034;2023-07-24T11:31:46;1.45;;;1.20;;
9436;SDS011;4757;59.334;18.034;2023-07-24T11:34:13;1.80;;;1.48;;
9436;SDS011;4757;59.334;18.034;2023-07-24T11:36:41;1.67;;;1.58;;
9436;SDS011;4757;59.334;18.034;2023-07-24T11:39:12;1.58;;;1.40;;
9436;SDS011;4757;59.334;18.034;2023-07-24T11:41:43;1.50;;;1.40;;
9436;SDS011;4757;59.334;18.034;2023-07-24T11:44:11;1.80;;;1.65;;
9436;SDS011;4757;59.334;18.034;2023-07-24T11:46:43;2.15;;;1.92;;
9436;SDS011;4757;59.334;18.034;2023-07-24T11:49:13;1.42;;;1.33;;
9436;SDS011;4757;59.334;18.034;2023-07-24T11:51:41;1.50;;;1.40;;
9436;SDS011;4757;59.334;18.034;2023-07-24T11:54:09;1.60;;;1.50;;
9436;SDS011;4757;59.334;18.034;2023-07-24T11:56:41;1.30;;;1.20;;
9436;SDS011;4757;59.334;18.034;2023-07-24T11:59:09;2.28;;;1.45;;
9436;SDS011;4757;59.334;18.034;2023-07-24T12:01:37;1.63;;;1.20;;
9436;SDS011;4757;59.334;18.034;2023-07-24T12:04:04;4.40;;;4.00;;
9436;SDS011;4757;59.334;18.034;2023-07-24T12:06:35;1.70;;;1.23;;
9436;SDS011;4757;59.334;18.034;2023-07-24T12:09:04;2.05;;;1.52;;
9436;SDS011;4757;59.334;18.034;2023-07-24T12:11:44;1.50;;;1.40;;
9436;SDS011;4757;59.334;18.034;2023-07-24T12:14:13;1.33;;;1.23;;
9436;SDS011;4757;59.334;18.034;2023-07-24T12:16:41;2.88;;;1.80;;
9436;SDS011;4757;59.334;18.034;2023-07-24T12:19:11;2.08;;;1.50;;
9436;SDS011;4757;59.334;18.034;2023-07-24T12:21:39;3.10;;;1.40;;
9436;SDS011;4757;59.334;18.034;2023-07-24T12:24:10;1.30;;;1.20;;
9436;SDS011;4757;59.334;18.034;2023-07-24T12:26:43;1.10;;;1.10;;
9436;SDS011;4757;59.334;18.034;2023-07-24T12:29:11;3.03;;;1.17;;
9436;SDS011;4757;59.334;18.034;2023-07-24T12:31:41;2.00;;;1.33;;
9436;SDS011;4757;59.334;18.034;2023-07-24T12:34:17;1.10;;;1.00;;
9436;SDS011;4757;59.334;18.034;2023-07-24T12:36:44;2.67;;;1.00;;
9436;SDS011;4757;59.334;18.034;2023-07-24T12:39:14;1.63;;;0.80;;
9436;SDS011;4757;59.334;18.034;2023-07-24T12:41:43;4.20;;;1.88;;
9436;SDS011;4757;59.334;18.034;2023-07-24T12:44:12;1.52;;;0.93;;
9436;SDS011;4757;59.334;18.034;2023-07-24T12:46:40;1.20;;;1.10;;
9436;SDS011;4757;59.334;18.034;2023-07-24T12:49:08;1.25;;;1.15;;
9436;SDS011;4757;59.334;18.034;2023-07-24T12:51:35;1.40;;;0.90;;
9436;SDS011;4757;59.334;18.034;2023-07-24T12:54:05;1.20;;;1.05;;
9436;SDS011;4757;59.334;18.034;2023-07-24T12:56:52;2.38;;;1.50;;
9436;SDS011;4757;59.334;18.034;2023-07-24T12:59:20;0.90;;;0.90;;
9436;SDS011;4757;59.334;18.034;2023-07-24T13:01:47;1.25;;;1.13;;
9436;SDS011;4757;59.334;18.034;2023-07-24T13:04:17;1.10;;;1.08;;
9436;SDS011;4757;59.334;18.034;2023-07-24T13:06:46;0.75;;;0.75;;
9436;SDS011;4757;59.334;18.034;2023-07-24T13:09:13;0.88;;;0.88;;
9436;SDS011;4757;59.334;18.034;2023-07-24T13:11:44;2.53;;;0.98;;
9436;SDS011;4757;59.334;18.034;2023-07-24T13:14:14;1.23;;;1.00;;
9436;SDS011;4757;59.334;18.034;2023-07-24T13:16:47;1.20;;;0.90;;
9436;SDS011;4757;59.334;18.034;2023-07-24T13:19:20;1.38;;;1.13;;
9436;SDS011;4757;59.334;18.034;2023-07-24T13:21:48;1.98;;;1.10;;
9436;SDS011;4757;59.334;18.034;2023-07-24T13:24:16;1.13;;;0.93;;
9436;SDS011;4757;59.334;18.034;2023-07-24T13:26:46;1.17;;;1.10;;
9436;SDS011;4757;59.334;18.034;2023-07-24T13:29:13;1.02;;;1.02;;
9436;SDS011;4757;59.334;18.034;2023-07-24T13:31:52;1.05;;;1.00;;
9436;SDS011;4757;59.334;18.034;2023-07-24T13:34:20;1.75;;;1.10;;
9436;SDS011;4757;59.334;18.034;2023-07-24T13:36:49;1.88;;;1.05;;
9436;SDS011;4757;59.334;18.034;2023-07-24T13:39:19;1.30;;;1.20;;
9436;SDS011;4757;59.334;18.034;2023-07-24T13:41:49;4.60;;;4.05;;
9436;SDS011;4757;59.334;18.034;2023-07-24T13:44:16;1.30;;;1.05;;
9436;SDS011;4757;59.334;18.034;2023-07-24T13:46:47;1.58;;;1.10;;
9436;SDS011;4757;59.334;18.034;2023-07-24T13:49:14;1.40;;;1.10;;
9436;SDS011;4757;59.334;18.034;2023-07-24T13:51:42;1.55;;;1.30;;
9436;SDS011;4757;59.334;18.034;2023-07-24T13:54:09;1.33;;;1.15;;
9436;SDS011;4757;59.334;18.034;2023-07-24T13:56:39;1.40;;;1.20;;
9436;SDS011;4757;59.334;18.034;2023-07-24T13:59:06;2.05;;;1.88;;
9436;SDS011;4757;59.334;18.034;2023-07-24T14:01:47;1.52;;;1.38;;
9436;SDS011;4757;59.334;18.034;2023-07-24T14:04:19;1.30;;;1.20;;
9436;SDS011;4757;59.334;18.034;2023-07-24T14:06:56;4.75;;;1.90;;
9436;SDS011;4757;59.334;18.034;2023-07-24T14:09:37;2.20;;;1.20;;
9436;SDS011;4757;59.334;18.034;2023-07-24T14:12:09;2.42;;;1.20;;
9436;SDS011;4757;59.334;18.034;2023-07-24T14:14:39;1.80;;;1.30;;
9436;SDS011;4757;59.334;18.034;2023-07-24T14:17:20;2.00;;;1.40;;
9436;SDS011;4757;59.334;18.034;2023-07-24T14:20:07;1.60;;;1.33;;
9436;SDS011;4757;59.334;18.034;2023-07-24T14:22:48;2.63;;;1.35;;
9436;SDS011;4757;59.334;18.034;2023-07-24T14:25:23;1.33;;;1.10;;
9436;SDS011;4757;59.334;18.034;2023-07-24T14:28:17;1.40;;;1.30;;
9436;SDS011;4757;59.334;18.034;2023-07-24T14:30:45;1.42;;;1.27;;
9436;SDS011;4757;59.334;18.034;2023-07-24T14:33:28;1.17;;;1.08;;
9436;SDS011;4757;59.334;18.034;2023-07-24T14:36:18;1.33;;;1.23;;
9436;SDS011;4757;59.334;18.034;2023-07-24T14:38:48;1.70;;;1.33;;
9436;SDS011;4757;59.334;18.034;2023-07-24T14:41:27;3.03;;;1.45;;
9436;SDS011;4757;59.334;18.034;2023-07-24T14:44:08;1.23;;;1.13;;
9436;SDS011;4757;59.334;18.034;2023-07-24T14:46:53;2.03;;;1.58;;
9436;SDS011;4757;59.334;18.034;2023-07-24T14:49:34;1.30;;;1.20;;
9436;SDS011;4757;59.334;18.034;2023-07-24T14:52:15;1.70;;;1.48;;
9436;SDS011;4757;59.334;18.034;2023-07-24T14:54:49;0.93;;;0.93;;
9436;SDS011;4757;59.334;18.034;2023-07-24T14:57:19;1.98;;;1.25;;
9436;SDS011;4757;59.334;18.034;2023-07-24T14:59:51;3.05;;;1.40;;
9436;SDS011;4757;59.334;18.034;2023-07-24T15:02:32;1.02;;;0.98;;
9436;SDS011;4757;59.334;18.034;2023-07-24T15:05:00;1.00;;;1.00;;
9436;SDS011;4757;59.334;18.034;2023-07-24T15:07:33;1.05;;;1.02;;
9436;SDS011;4757;59.334;18.034;2023-07-24T15:10:03;2.33;;;1.13;;
9436;SDS011;4757;59.334;18.034;2023-07-24T15:12:36;1.27;;;1.17;;
9436;SDS011;4757;59.334;18.034;2023-07-24T15:15:04;1.58;;;1.48;;
9436;SDS011;4757;59.334;18.034;2023-07-24T15:17:42;1.97;;;1.20;;
9436;SDS011;4757;59.334;18.034;2023-07-24T15:20:10;1.30;;;1.07;;
9436;SDS011;4757;59.334;18.034;2023-07-24T15:22:41;1.87;;;1.47;;
9436;SDS011;4757;59.334;18.034;2023-07-24T15:25:13;1.23;;;1.13;;
9436;SDS011;4757;59.334;18.034;2023-07-24T15:27:54;1.30;;;1.20;;